sensor_id;sensor_type;location;lat;lon;timestamp;temperature;humidity
22674;DHT22;11504;43.334;21.918;2024-02-14T00:01:57;9.6;100.0
22674;DHT22;11504;43.334;21.918;2024-02-14T00:06:35;9.6;100.0
22674;DHT22;11504;43.334;21.918;2024-02-14T00:11:12;9.6;100.0
22674;DHT22;11504;43.334;21.918;2024-02-14T00:15:48;9.6;100.0
22674;DHT22;11504;43.334;21.918;2024-02-14T00:20:25;9.6;100.0
22674;DHT22;11504;43.334;21.918;2024-02-14T00:25:01;9.6;100.0
22674;DHT22;11504;43.334;21.918;2024-02-14T00:29:39;9.6;100.0
22674;DHT22;11504;43.334;21.918;2024-02-14T00:34:16;9.6;100.0
22674;DHT22;11504;43.334;21.918;2024-02-14T00:38:52;9.6;100.0
22674;DHT22;11504;43.334;21.918;2024-02-14T00:43:29;9.5;100.0
22674;DHT22;11504;43.334;21.918;2024-02-14T00:48:07;9.5;100.0
22674;DHT22;11504;43.334;21.918;2024-02-14T00:52:43;9.4;100.0
22674;DHT22;11504;43.334;21.918;2024-02-14T00:57:20;9.4;100.0
22674;DHT22;11504;43.334;21.918;2024-02-14T01:01:56;9.4;100.0
22674;DHT22;11504;43.334;21.918;2024-02-14T01:06:32;9.4;100.0
22674;DHT22;11504;43.334;21.918;2024-02-14T01:11:10;9.4;100.0
22674;DHT22;11504;43.334;21.918;2024-02-14T01:15:46;9.4;100.0
22674;DHT22;11504;43.334;21.918;2024-02-14T01:20:23;9.4;100.0
22674;DHT22;11504;43.334;21.918;2024-02-14T01:25:00;9.5;100.0
22674;DHT22;11504;43.334;21.918;2024-02-14T01:29:36;9.5;100.0
22674;DHT22;11504;43.334;21.918;2024-02-14T01:34:13;9.6;100.0
22674;DHT22;11504;43.334;21.918;2024-02-14T01:38:50;9.6;100.0
22674;DHT22;11504;43.334;21.918;2024-02-14T01:43:26;9.6;100.0
22674;DHT22;11504;43.334;21.918;2024-02-14T01:48:06;9.6;100.0
22674;DHT22;11504;43.334;21.918;2024-02-14T01:52:45;9.4;100.0
22674;DHT22;11504;43.334;21.918;2024-02-14T01:57:24;9.4;100.0
22674;DHT22;11504;43.334;21.918;2024-02-14T02:02:01;9.3;100.0
22674;DHT22;11504;43.334;21.918;2024-02-14T02:06:39;9.3;100.0
22674;DHT22;11504;43.334;21.918;2024-02-14T02:11:15;9.2;100.0
22674;DHT22;11504;43.334;21.918;2024-02-14T02:15:53;9.2;100.0
22674;DHT22;11504;43.334;21.918;2024-02-14T02:20:29;9.2;100.0
22674;DHT22;11504;43.334;21.918;2024-02-14T02:25:07;9.2;100.0
22674;DHT22;11504;43.334;21.918;2024-02-14T02:29:43;9.2;100.0
22674;DHT22;11504;43.334;21.918;2024-02-14T02:34:19;9.1;100.0
22674;DHT22;11504;43.334;21.918;2024-02-14T02:38:56;9.1;100.0
22674;DHT22;11504;43.334;21.918;2024-02-14T02:43:35;9.1;100.0
22674;DHT22;11504;43.334;21.918;2024-02-14T02:48:12;9.1;100.0
22674;DHT22;11504;43.334;21.918;2024-02-14T02:52:48;9.1;100.0
22674;DHT22;11504;43.334;21.918;2024-02-14T02:57:25;9.1;100.0
22674;DHT22;11504;43.334;21.918;2024-02-14T03:02:02;9.1;100.0
22674;DHT22;11504;43.334;21.918;2024-02-14T03:06:39;9.1;100.0
22674;DHT22;11504;43.334;21.918;2024-02-14T03:11:16;9.0;100.0
22674;DHT22;11504;43.334;21.918;2024-02-14T03:15:52;9.0;100.0
22674;DHT22;11504;43.334;21.918;2024-02-14T03:20:29;9.0;100.0
22674;DHT22;11504;43.334;21.918;2024-02-14T03:25:06;8.9;100.0
22674;DHT22;11504;43.334;21.918;2024-02-14T03:29:43;8.9;100.0
22674;DHT22;11504;43.334;21.918;2024-02-14T03:34:20;8.9;100.0
22674;DHT22;11504;43.334;21.918;2024-02-14T03:38:56;8.9;100.0
22674;DHT22;11504;43.334;21.918;2024-02-14T03:43:32;8.8;100.0
22674;DHT22;11504;43.334;21.918;2024-02-14T03:48:08;8.8;100.0
22674;DHT22;11504;43.334;21.918;2024-02-14T03:52:44;8.9;100.0
22674;DHT22;11504;43.334;21.918;2024-02-14T03:57:20;8.9;100.0
22674;DHT22;11504;43.334;21.918;2024-02-14T04:01:56;8.9;100.0
22674;DHT22;11504;43.334;21.918;2024-02-14T04:06:32;8.9;100.0
22674;DHT22;11504;43.334;21.918;2024-02-14T04:11:09;8.9;100.0
22674;DHT22;11504;43.334;21.918;2024-02-14T04:15:46;8.9;100.0
22674;DHT22;11504;43.334;21.918;2024-02-14T04:20:23;8.9;100.0
22674;DHT22;11504;43.334;21.918;2024-02-14T04:25:00;8.9;100.0
22674;DHT22;11504;43.334;21.918;2024-02-14T04:29:36;8.9;100.0
22674;DHT22;11504;43.334;21.918;2024-02-14T04:34:13;9.0;100.0
22674;DHT22;11504;43.334;21.918;2024-02-14T04:38:50;9.0;100.0
22674;DHT22;11504;43.334;21.918;2024-02-14T04:43:27;9.0;100.0
22674;DHT22;11504;43.334;21.918;2024-02-14T04:48:04;9.0;100.0
22674;DHT22;11504;43.334;21.918;2024-02-14T04:52:41;9.0;100.0
22674;DHT22;11504;43.334;21.918;2024-02-14T04:57:16;9.0;100.0
22674;DHT22;11504;43.334;21.918;2024-02-14T05:01:52;8.9;100.0
22674;DHT22;11504;43.334;21.918;2024-02-14T05:06:28;8.9;100.0
22674;DHT22;11504;43.334;21.918;2024-02-14T05:11:04;8.7;100.0
22674;DHT22;11504;43.334;21.918;2024-02-14T05:15:41;8.7;100.0
22674;DHT22;11504;43.334;21.918;2024-02-14T05:20:17;8.7;100.0
22674;DHT22;11504;43.334;21.918;2024-02-14T05:24:54;8.5;100.0
22674;DHT22;11504;43.334;21.918;2024-02-14T05:29:30;8.5;100.0
22674;DHT22;11504;43.334;21.918;2024-02-14T05:34:07;8.4;100.0
22674;DHT22;11504;43.334;21.918;2024-02-14T05:38:43;8.4;100.0
22674;DHT22;11504;43.334;21.918;2024-02-14T05:43:19;8.4;100.0
22674;DHT22;11504;43.334;21.918;2024-02-14T05:47:55;8.4;100.0
22674;DHT22;11504;43.334;21.918;2024-02-14T05:52:32;8.3;100.0
22674;DHT22;11504;43.334;21.918;2024-02-14T05:57:08;8.3;100.0
22674;DHT22;11504;43.334;21.918;2024-02-14T06:01:44;8.2;100.0
22674;DHT22;11504;43.334;21.918;2024-02-14T06:06:20;8.2;100.0
22674;DHT22;11504;43.334;21.918;2024-02-14T06:10:57;8.1;100.0
22674;DHT22;11504;43.334;21.918;2024-02-14T06:15:33;8.1;100.0
22674;DHT22;11504;43.334;21.918;2024-02-14T06:20:11;8.1;100.0
22674;DHT22;11504;43.334;21.918;2024-02-14T06:24:48;8.1;100.0
22674;DHT22;11504;43.334;21.918;2024-02-14T06:29:24;8.1;100.0
22674;DHT22;11504;43.334;21.918;2024-02-14T06:34:01;8.1;100.0
22674;DHT22;11504;43.334;21.918;2024-02-14T06:38:38;8.1;100.0
22674;DHT22;11504;43.334;21.918;2024-02-14T06:43:14;8.2;100.0
22674;DHT22;11504;43.334;21.918;2024-02-14T06:47:51;8.2;100.0
22674;DHT22;11504;43.334;21.918;2024-02-14T06:52:27;8.3;100.0
22674;DHT22;11504;43.334;21.918;2024-02-14T06:57:04;8.3;100.0
22674;DHT22;11504;43.334;21.918;2024-02-14T07:01:41;8.4;100.0
22674;DHT22;11504;43.334;21.918;2024-02-14T07:06:17;8.4;100.0
22674;DHT22;11504;43.334;21.918;2024-02-14T07:10:55;8.6;100.0
22674;DHT22;11504;43.334;21.918;2024-02-14T07:15:31;8.6;100.0
22674;DHT22;11504;43.334;21.918;2024-02-14T07:20:08;8.6;100.0
22674;DHT22;11504;43.334;21.918;2024-02-14T07:24:46;8.9;100.0
22674;DHT22;11504;43.334;21.918;2024-02-14T07:29:22;8.9;100.0
22674;DHT22;11504;43.334;21.918;2024-02-14T07:33:58;9.8;100.0
22674;DHT22;11504;43.334;21.918;2024-02-14T07:38:34;9.8;100.0
22674;DHT22;11504;43.334;21.918;2024-02-14T07:43:10;10.6;100.0
22674;DHT22;11504;43.334;21.918;2024-02-14T07:47:48;10.6;100.0
22674;DHT22;11504;43.334;21.918;2024-02-14T07:52:25;12.9;100.0
22674;DHT22;11504;43.334;21.918;2024-02-14T07:57:01;12.9;100.0
22674;DHT22;11504;43.334;21.918;2024-02-14T08:01:37;15.2;100.0
22674;DHT22;11504;43.334;21.918;2024-02-14T08:06:14;15.2;100.0
22674;DHT22;11504;43.334;21.918;2024-02-14T08:10:50;16.3;100.0
22674;DHT22;11504;43.334;21.918;2024-02-14T08:15:27;16.3;100.0
22674;DHT22;11504;43.334;21.918;2024-02-14T08:20:05;16.3;100.0
22674;DHT22;11504;43.334;21.918;2024-02-14T08:24:44;17.4;100.0
22674;DHT22;11504;43.334;21.918;2024-02-14T08:29:21;17.4;100.0
22674;DHT22;11504;43.334;21.918;2024-02-14T08:33:59;17.7;100.0
22674;DHT22;11504;43.334;21.918;2024-02-14T08:38:35;17.7;100.0
22674;DHT22;11504;43.334;21.918;2024-02-14T08:43:11;18.0;100.0
22674;DHT22;11504;43.334;21.918;2024-02-14T08:47:47;18.0;100.0
22674;DHT22;11504;43.334;21.918;2024-02-14T08:52:23;18.0;100.0
22674;DHT22;11504;43.334;21.918;2024-02-14T08:57:04;18.0;100.0
22674;DHT22;11504;43.334;21.918;2024-02-14T09:01:40;18.1;100.0
22674;DHT22;11504;43.334;21.918;2024-02-14T09:06:17;18.1;100.0
22674;DHT22;11504;43.334;21.918;2024-02-14T09:10:53;18.1;100.0
22674;DHT22;11504;43.334;21.918;2024-02-14T09:15:30;18.1;100.0
22674;DHT22;11504;43.334;21.918;2024-02-14T09:20:09;18.1;100.0
22674;DHT22;11504;43.334;21.918;2024-02-14T09:24:48;18.1;100.0
22674;DHT22;11504;43.334;21.918;2024-02-14T09:29:26;18.1;100.0
22674;DHT22;11504;43.334;21.918;2024-02-14T09:34:03;18.0;100.0
22674;DHT22;11504;43.334;21.918;2024-02-14T09:38:40;18.0;100.0
22674;DHT22;11504;43.334;21.918;2024-02-14T09:43:32;17.9;100.0
22674;DHT22;11504;43.334;21.918;2024-02-14T09:48:21;17.9;100.0
22674;DHT22;11504;43.334;21.918;2024-02-14T09:53:03;17.8;100.0
22674;DHT22;11504;43.334;21.918;2024-02-14T09:57:44;17.8;100.0
22674;DHT22;11504;43.334;21.918;2024-02-14T10:02:25;17.8;100.0
22674;DHT22;11504;43.334;21.918;2024-02-14T10:07:01;17.8;100.0
22674;DHT22;11504;43.334;21.918;2024-02-14T10:11:38;17.2;100.0
22674;DHT22;11504;43.334;21.918;2024-02-14T10:16:14;17.2;100.0
22674;DHT22;11504;43.334;21.918;2024-02-14T10:20:55;17.2;100.0
22674;DHT22;11504;43.334;21.918;2024-02-14T10:25:34;16.6;100.0
22674;DHT22;11504;43.334;21.918;2024-02-14T10:30:12;16.6;100.0
22674;DHT22;11504;43.334;21.918;2024-02-14T10:34:50;16.2;100.0
22674;DHT22;11504;43.334;21.918;2024-02-14T10:39:30;16.2;100.0
22674;DHT22;11504;43.334;21.918;2024-02-14T10:44:12;15.9;100.0
22674;DHT22;11504;43.334;21.918;2024-02-14T10:48:53;15.9;100.0
22674;DHT22;11504;43.334;21.918;2024-02-14T10:53:44;15.6;100.0
22674;DHT22;11504;43.334;21.918;2024-02-14T10:58:31;15.6;100.0
22674;DHT22;11504;43.334;21.918;2024-02-14T11:03:11;15.2;100.0
22674;DHT22;11504;43.334;21.918;2024-02-14T11:07:50;15.2;100.0
22674;DHT22;11504;43.334;21.918;2024-02-14T11:12:27;15.0;100.0
22674;DHT22;11504;43.334;21.918;2024-02-14T11:17:12;15.0;100.0
22674;DHT22;11504;43.334;21.918;2024-02-14T11:21:49;14.9;100.0
22674;DHT22;11504;43.334;21.918;2024-02-14T11:26:25;14.9;100.0
22674;DHT22;11504;43.334;21.918;2024-02-14T11:31:01;14.6;100.0
22674;DHT22;11504;43.334;21.918;2024-02-14T11:35:40;14.6;100.0
22674;DHT22;11504;43.334;21.918;2024-02-14T11:40:19;14.6;100.0
22674;DHT22;11504;43.334;21.918;2024-02-14T11:44:55;14.2;100.0
22674;DHT22;11504;43.334;21.918;2024-02-14T11:49:31;14.2;100.0
22674;DHT22;11504;43.334;21.918;2024-02-14T11:54:09;13.7;100.0
22674;DHT22;11504;43.334;21.918;2024-02-14T11:58:47;13.7;100.0
22674;DHT22;11504;43.334;21.918;2024-02-14T12:03:25;13.2;100.0
22674;DHT22;11504;43.334;21.918;2024-02-14T12:08:04;13.2;100.0
22674;DHT22;11504;43.334;21.918;2024-02-14T12:12:45;13.0;100.0
22674;DHT22;11504;43.334;21.918;2024-02-14T12:17:23;13.0;100.0
22674;DHT22;11504;43.334;21.918;2024-02-14T12:22:00;12.9;100.0
22674;DHT22;11504;43.334;21.918;2024-02-14T12:26:38;12.9;100.0
22674;DHT22;11504;43.334;21.918;2024-02-14T12:31:22;13.0;100.0
22674;DHT22;11504;43.334;21.918;2024-02-14T12:36:00;13.0;100.0
22674;DHT22;11504;43.334;21.918;2024-02-14T12:40:39;13.0;100.0
22674;DHT22;11504;43.334;21.918;2024-02-14T12:45:17;13.2;100.0
22674;DHT22;11504;43.334;21.918;2024-02-14T12:49:54;13.2;100.0
22674;DHT22;11504;43.334;21.918;2024-02-14T12:54:30;13.2;100.0
22674;DHT22;11504;43.334;21.918;2024-02-14T12:59:07;13.2;100.0
22674;DHT22;11504;43.334;21.918;2024-02-14T13:12:55;13.0;100.0
22674;DHT22;11504;43.334;21.918;2024-02-14T13:17:32;13.0;100.0
22674;DHT22;11504;43.334;21.918;2024-02-14T13:22:09;13.0;100.0
22674;DHT22;11504;43.334;21.918;2024-02-14T13:26:45;13.0;100.0
22674;DHT22;11504;43.334;21.918;2024-02-14T13:31:21;12.8;100.0
22674;DHT22;11504;43.334;21.918;2024-02-14T13:35:58;12.8;100.0
22674;DHT22;11504;43.334;21.918;2024-02-14T13:40:34;12.8;100.0
22674;DHT22;11504;43.334;21.918;2024-02-14T13:45:11;12.6;100.0
22674;DHT22;11504;43.334;21.918;2024-02-14T13:49:47;12.6;100.0
22674;DHT22;11504;43.334;21.918;2024-02-14T13:54:24;12.4;100.0
22674;DHT22;11504;43.334;21.918;2024-02-14T13:59:01;12.4;100.0
22674;DHT22;11504;43.334;21.918;2024-02-14T14:03:37;12.3;100.0
22674;DHT22;11504;43.334;21.918;2024-02-14T14:08:13;12.3;100.0
22674;DHT22;11504;43.334;21.918;2024-02-14T14:12:49;12.4;100.0
22674;DHT22;11504;43.334;21.918;2024-02-14T14:17:25;12.4;100.0
22674;DHT22;11504;43.334;21.918;2024-02-14T14:22:02;12.4;100.0
22674;DHT22;11504;43.334;21.918;2024-02-14T14:26:38;12.4;100.0
22674;DHT22;11504;43.334;21.918;2024-02-14T14:31:15;12.2;100.0
22674;DHT22;11504;43.334;21.918;2024-02-14T14:35:51;12.2;100.0
22674;DHT22;11504;43.334;21.918;2024-02-14T14:40:27;12.2;100.0
22674;DHT22;11504;43.334;21.918;2024-02-14T14:45:06;12.0;100.0
22674;DHT22;11504;43.334;21.918;2024-02-14T14:49:43;12.0;100.0
22674;DHT22;11504;43.334;21.918;2024-02-14T14:54:19;11.8;100.0
22674;DHT22;11504;43.334;21.918;2024-02-14T14:58:56;11.8;100.0
22674;DHT22;11504;43.334;21.918;2024-02-14T15:03:32;11.5;100.0
22674;DHT22;11504;43.334;21.918;2024-02-14T15:08:09;11.5;100.0
22674;DHT22;11504;43.334;21.918;2024-02-14T15:12:45;11.3;100.0
22674;DHT22;11504;43.334;21.918;2024-02-14T15:17:22;11.3;100.0
22674;DHT22;11504;43.334;21.918;2024-02-14T15:21:59;11.1;100.0
22674;DHT22;11504;43.334;21.918;2024-02-14T15:26:35;11.1;100.0
22674;DHT22;11504;43.334;21.918;2024-02-14T15:31:11;11.1;100.0
22674;DHT22;11504;43.334;21.918;2024-02-14T15:35:48;11.0;100.0
22674;DHT22;11504;43.334;21.918;2024-02-14T15:40:24;11.0;100.0
22674;DHT22;11504;43.334;21.918;2024-02-14T15:45:00;11.0;100.0
22674;DHT22;11504;43.334;21.918;2024-02-14T15:49:36;11.0;100.0
22674;DHT22;11504;43.334;21.918;2024-02-14T15:54:12;10.8;100.0
22674;DHT22;11504;43.334;21.918;2024-02-14T15:58:48;10.8;100.0
22674;DHT22;11504;43.334;21.918;2024-02-14T16:03:24;10.7;100.0
22674;DHT22;11504;43.334;21.918;2024-02-14T16:08:01;10.7;100.0
22674;DHT22;11504;43.334;21.918;2024-02-14T16:12:37;10.6;100.0
22674;DHT22;11504;43.334;21.918;2024-02-14T16:17:13;10.6;100.0
22674;DHT22;11504;43.334;21.918;2024-02-14T16:21:49;10.4;100.0
22674;DHT22;11504;43.334;21.918;2024-02-14T16:26:25;10.4;100.0
22674;DHT22;11504;43.334;21.918;2024-02-14T16:31:02;10.4;100.0
22674;DHT22;11504;43.334;21.918;2024-02-14T16:35:38;10.4;100.0
22674;DHT22;11504;43.334;21.918;2024-02-14T16:40:14;10.4;100.0
22674;DHT22;11504;43.334;21.918;2024-02-14T16:44:52;10.3;100.0
22674;DHT22;11504;43.334;21.918;2024-02-14T16:49:29;10.3;100.0
22674;DHT22;11504;43.334;21.918;2024-02-14T16:54:05;10.2;100.0
22674;DHT22;11504;43.334;21.918;2024-02-14T16:58:41;10.2;100.0
22674;DHT22;11504;43.334;21.918;2024-02-14T17:03:17;10.1;100.0
22674;DHT22;11504;43.334;21.918;2024-02-14T17:07:54;10.1;100.0
22674;DHT22;11504;43.334;21.918;2024-02-14T17:12:30;10.1;100.0
22674;DHT22;11504;43.334;21.918;2024-02-14T17:17:06;10.1;100.0
22674;DHT22;11504;43.334;21.918;2024-02-14T17:21:43;10.1;100.0
22674;DHT22;11504;43.334;21.918;2024-02-14T17:26:20;10.1;100.0
22674;DHT22;11504;43.334;21.918;2024-02-14T17:30:57;10.1;100.0
22674;DHT22;11504;43.334;21.918;2024-02-14T17:35:33;10.0;100.0
22674;DHT22;11504;43.334;21.918;2024-02-14T17:40:11;10.0;100.0
22674;DHT22;11504;43.334;21.918;2024-02-14T17:44:48;9.8;100.0
22674;DHT22;11504;43.334;21.918;2024-02-14T17:49:25;9.8;100.0
22674;DHT22;11504;43.334;21.918;2024-02-14T17:54:02;9.8;100.0
22674;DHT22;11504;43.334;21.918;2024-02-14T17:58:38;9.8;100.0
22674;DHT22;11504;43.334;21.918;2024-02-14T18:12:27;9.4;100.0
22674;DHT22;11504;43.334;21.918;2024-02-14T18:17:03;9.4;100.0
22674;DHT22;11504;43.334;21.918;2024-02-14T18:21:39;9.4;100.0
22674;DHT22;11504;43.334;21.918;2024-02-14T18:26:15;9.4;100.0
22674;DHT22;11504;43.334;21.918;2024-02-14T18:30:51;9.4;100.0
22674;DHT22;11504;43.334;21.918;2024-02-14T18:35:28;9.3;100.0
22674;DHT22;11504;43.334;21.918;2024-02-14T18:40:07;9.3;100.0
22674;DHT22;11504;43.334;21.918;2024-02-14T18:44:46;9.2;100.0
22674;DHT22;11504;43.334;21.918;2024-02-14T18:49:22;9.2;100.0
22674;DHT22;11504;43.334;21.918;2024-02-14T18:53:58;9.1;100.0
22674;DHT22;11504;43.334;21.918;2024-02-14T18:58:35;9.1;100.0
22674;DHT22;11504;43.334;21.918;2024-02-14T19:03:11;9.1;100.0
22674;DHT22;11504;43.334;21.918;2024-02-14T19:07:47;9.1;100.0
22674;DHT22;11504;43.334;21.918;2024-02-14T19:12:23;9.0;100.0
22674;DHT22;11504;43.334;21.918;2024-02-14T19:17:00;9.0;100.0
22674;DHT22;11504;43.334;21.918;2024-02-14T19:21:36;8.9;100.0
22674;DHT22;11504;43.334;21.918;2024-02-14T19:26:12;8.9;100.0
22674;DHT22;11504;43.334;21.918;2024-02-14T19:30:48;8.9;100.0
22674;DHT22;11504;43.334;21.918;2024-02-14T19:35:24;8.8;100.0
22674;DHT22;11504;43.334;21.918;2024-02-14T19:40:00;8.8;100.0
22674;DHT22;11504;43.334;21.918;2024-02-14T19:44:36;8.6;100.0
22674;DHT22;11504;43.334;21.918;2024-02-14T19:49:12;8.6;100.0
22674;DHT22;11504;43.334;21.918;2024-02-14T19:53:49;8.6;100.0
22674;DHT22;11504;43.334;21.918;2024-02-14T19:58:25;8.6;100.0
22674;DHT22;11504;43.334;21.918;2024-02-14T20:03:01;8.5;100.0
22674;DHT22;11504;43.334;21.918;2024-02-14T20:07:38;8.5;100.0
22674;DHT22;11504;43.334;21.918;2024-02-14T20:12:14;8.4;100.0
22674;DHT22;11504;43.334;21.918;2024-02-14T20:16:53;8.4;100.0
22674;DHT22;11504;43.334;21.918;2024-02-14T20:21:30;8.2;100.0
22674;DHT22;11504;43.334;21.918;2024-02-14T20:26:07;8.2;100.0
22674;DHT22;11504;43.334;21.918;2024-02-14T20:30:44;8.2;100.0
22674;DHT22;11504;43.334;21.918;2024-02-14T20:35:21;8.1;100.0
22674;DHT22;11504;43.334;21.918;2024-02-14T20:39:57;8.1;100.0
22674;DHT22;11504;43.334;21.918;2024-02-14T20:44:34;8.1;100.0
22674;DHT22;11504;43.334;21.918;2024-02-14T20:49:10;8.1;100.0
22674;DHT22;11504;43.334;21.918;2024-02-14T20:53:46;8.0;100.0
22674;DHT22;11504;43.334;21.918;2024-02-14T20:58:22;8.0;100.0
22674;DHT22;11504;43.334;21.918;2024-02-14T21:02:58;8.0;100.0
22674;DHT22;11504;43.334;21.918;2024-02-14T21:07:33;8.0;100.0
22674;DHT22;11504;43.334;21.918;2024-02-14T21:12:10;8.0;100.0
22674;DHT22;11504;43.334;21.918;2024-02-14T21:16:47;8.0;100.0
22674;DHT22;11504;43.334;21.918;2024-02-14T21:21:23;8.0;100.0
22674;DHT22;11504;43.334;21.918;2024-02-14T21:25:59;7.9;100.0
22674;DHT22;11504;43.334;21.918;2024-02-14T21:30:36;7.9;100.0
22674;DHT22;11504;43.334;21.918;2024-02-14T21:35:12;7.8;100.0
22674;DHT22;11504;43.334;21.918;2024-02-14T21:39:49;7.8;100.0
22674;DHT22;11504;43.334;21.918;2024-02-14T21:44:25;7.7;100.0
22674;DHT22;11504;43.334;21.918;2024-02-14T21:49:02;7.7;100.0
22674;DHT22;11504;43.334;21.918;2024-02-14T21:53:38;7.6;100.0
22674;DHT22;11504;43.334;21.918;2024-02-14T21:58:14;7.6;100.0
22674;DHT22;11504;43.334;21.918;2024-02-14T22:02:51;7.5;100.0
22674;DHT22;11504;43.334;21.918;2024-02-14T22:07:27;7.5;100.0
22674;DHT22;11504;43.334;21.918;2024-02-14T22:12:05;7.5;100.0
22674;DHT22;11504;43.334;21.918;2024-02-14T22:16:42;7.5;100.0
22674;DHT22;11504;43.334;21.918;2024-02-14T22:21:18;7.5;100.0
22674;DHT22;11504;43.334;21.918;2024-02-14T22:25:54;7.5;100.0
22674;DHT22;11504;43.334;21.918;2024-02-14T22:30:30;7.5;100.0
22674;DHT22;11504;43.334;21.918;2024-02-14T22:35:07;7.3;100.0
22674;DHT22;11504;43.334;21.918;2024-02-14T22:39:43;7.3;100.0
22674;DHT22;11504;43.334;21.918;2024-02-14T22:44:19;7.1;100.0
22674;DHT22;11504;43.334;21.918;2024-02-14T22:48:55;7.1;100.0
22674;DHT22;11504;43.334;21.918;2024-02-14T22:53:32;6.7;100.0
22674;DHT22;11504;43.334;21.918;2024-02-14T22:58:10;6.7;100.0
22674;DHT22;11504;43.334;21.918;2024-02-14T23:02:46;6.3;100.0
22674;DHT22;11504;43.334;21.918;2024-02-14T23:07:23;6.3;100.0
22674;DHT22;11504;43.334;21.918;2024-02-14T23:11:59;6.0;100.0
22674;DHT22;11504;43.334;21.918;2024-02-14T23:16:36;6.0;100.0
22674;DHT22;11504;43.334;21.918;2024-02-14T23:21:13;6.0;100.0
22674;DHT22;11504;43.334;21.918;2024-02-14T23:25:49;5.8;100.0
22674;DHT22;11504;43.334;21.918;2024-02-14T23:30:26;5.8;100.0
22674;DHT22;11504;43.334;21.918;2024-02-14T23:35:04;5.6;100.0
22674;DHT22;11504;43.334;21.918;2024-02-14T23:39:40;5.6;100.0
22674;DHT22;11504;43.334;21.918;2024-02-14T23:44:16;5.4;100.0
22674;DHT22;11504;43.334;21.918;2024-02-14T23:48:52;5.4;100.0
22674;DHT22;11504;43.334;21.918;2024-02-14T23:53:28;5.2;100.0
22674;DHT22;11504;43.334;21.918;2024-02-14T23:58:04;5.2;100.0
